createdAt,value
2018-04-01T00:00:12.615Z,13.50
2018-04-01T00:02:40.182Z,13.90
2018-04-01T00:05:08.246Z,11.03
2018-04-01T00:07:36.802Z,13.67
2018-04-01T00:10:05.622Z,10.57
2018-04-01T00:12:33.184Z,10.13
2018-04-01T00:15:00.730Z,10.85
2018-04-01T00:17:28.241Z,9.63
2018-04-01T00:19:55.792Z,12.93
2018-04-01T00:22:23.368Z,9.10
2018-04-01T00:24:50.655Z,11.70
2018-04-01T00:27:18.225Z,10.15
2018-04-01T00:29:45.766Z,8.60
2018-04-01T00:32:13.297Z,13.87
2018-04-01T00:34:41.504Z,10.20
2018-04-01T00:37:08.930Z,9.40
2018-04-01T00:39:37.213Z,9.77
2018-04-01T00:42:04.481Z,7.67
2018-04-01T00:44:31.761Z,11.87
2018-04-01T00:46:59.033Z,7.40
2018-04-01T00:49:27.340Z,10.75
2018-04-01T00:51:54.719Z,7.40
2018-04-01T00:54:22.759Z,11.47
2018-04-01T00:56:50.239Z,10.30
2018-04-01T00:59:18.592Z,10.23
2018-04-01T01:01:46.401Z,7.83
2018-04-01T01:04:15.153Z,13.03
2018-04-01T01:06:42.823Z,9.48
2018-04-01T01:09:10.307Z,10.87
2018-04-01T01:11:38.351Z,8.80
2018-04-01T01:14:05.901Z,7.55
2018-04-01T01:16:33.448Z,9.10
2018-04-01T01:19:01.071Z,8.60
2018-04-01T01:21:29.396Z,8.98
2018-04-01T01:23:56.950Z,10.20
2018-04-01T01:26:24.774Z,9.10
2018-04-01T01:28:52.048Z,7.43
2018-04-01T01:31:19.607Z,8.15
2018-04-01T01:33:46.881Z,8.60
2018-04-01T01:36:14.147Z,12.03
2018-04-01T01:38:42.003Z,8.85
2018-04-01T01:41:10.942Z,7.53
2018-04-01T01:43:38.503Z,7.43
2018-04-01T01:46:06.096Z,6.83
2018-04-01T01:48:33.587Z,10.07
2018-04-01T01:51:00.939Z,10.87
2018-04-01T01:53:28.274Z,10.23
2018-04-01T01:55:55.314Z,7.53
2018-04-01T01:58:23.266Z,10.03
2018-04-01T02:00:51.359Z,6.43
2018-04-01T02:03:18.654Z,7.90
2018-04-01T02:05:45.684Z,8.90
2018-04-01T02:08:13.082Z,9.17
2018-04-01T02:10:40.565Z,7.47
2018-04-01T02:13:07.858Z,9.73
2018-04-01T02:15:35.387Z,6.70
2018-04-01T02:18:03.754Z,9.80
2018-04-01T02:20:31.483Z,12.00
2018-04-01T02:22:59.577Z,9.27
2018-04-01T02:25:27.341Z,9.27
2018-04-01T02:27:55.641Z,8.02
2018-04-01T02:30:23.206Z,10.23
2018-04-01T02:32:51.253Z,10.30
2018-04-01T02:35:18.299Z,12.80
2018-04-01T02:37:45.573Z,8.57
2018-04-01T02:40:13.243Z,9.80
2018-04-01T02:42:40.530Z,7.63
2018-04-01T02:45:08.005Z,5.80
2018-04-01T02:47:35.548Z,5.68
2018-04-01T02:50:02.850Z,5.80
2018-04-01T02:52:30.495Z,4.23
2018-04-01T02:54:58.564Z,5.12
2018-04-01T02:57:25.834Z,4.27
2018-04-01T02:59:54.097Z,2.83
2018-04-01T03:02:21.369Z,3.20
2018-04-01T03:04:49.320Z,3.33
2018-04-01T03:07:16.973Z,3.00
2018-04-01T03:09:44.688Z,2.35
2018-04-01T03:12:11.743Z,3.13
2018-04-01T03:14:39.643Z,3.93
2018-04-01T03:17:07.822Z,5.00
2018-04-01T03:19:35.611Z,3.53
2018-04-01T03:22:03.107Z,4.20
2018-04-01T03:24:30.498Z,3.80
2018-04-01T03:26:57.781Z,3.33
2018-04-01T03:29:25.307Z,5.70
2018-04-01T03:31:52.594Z,3.90
2018-04-01T03:34:21.685Z,4.87
2018-04-01T03:36:49.831Z,3.70
2018-04-01T03:39:17.587Z,6.53
2018-04-01T03:41:45.148Z,5.85
2018-04-01T03:44:12.814Z,5.13
2018-04-01T03:46:40.229Z,6.30
2018-04-01T03:49:08.540Z,7.03
2018-04-01T03:51:36.081Z,5.47
2018-04-01T03:54:03.358Z,6.90
2018-04-01T03:56:31.094Z,7.47
2018-04-01T03:58:58.634Z,6.45
2018-04-01T04:01:26.086Z,5.60
2018-04-01T04:03:53.122Z,6.33
2018-04-01T04:06:20.507Z,5.85
2018-04-01T04:08:47.846Z,5.43
2018-04-01T04:11:14.886Z,6.63
2018-04-01T04:13:42.158Z,6.13
2018-04-01T04:16:09.462Z,7.60
2018-04-01T04:18:37.057Z,6.00
2018-04-01T04:21:04.605Z,9.77
2018-04-01T04:23:31.895Z,7.63
2018-04-01T04:26:00.068Z,7.77
2018-04-01T04:28:27.558Z,8.40
2018-04-01T04:30:55.771Z,8.37
2018-04-01T04:33:23.053Z,6.90
2018-04-01T04:35:51.229Z,9.60
2018-04-01T04:38:18.520Z,7.80
2018-04-01T04:40:46.055Z,7.00
2018-04-01T04:43:13.379Z,7.83
2018-04-01T04:45:40.655Z,8.27
2018-04-01T04:48:07.946Z,7.33
2018-04-01T04:50:35.212Z,7.50
2018-04-01T04:53:02.686Z,7.33
2018-04-01T04:55:29.713Z,5.63
2018-04-01T04:57:57.639Z,7.83
2018-04-01T05:00:25.681Z,8.07
2018-04-01T05:02:52.969Z,6.13
2018-04-01T05:05:20.997Z,7.20
2018-04-01T05:07:48.536Z,6.47
2018-04-01T05:10:15.818Z,6.57
2018-04-01T05:12:43.152Z,6.20
2018-04-01T05:15:10.730Z,6.23
2018-04-01T05:17:38.298Z,7.43
2018-04-01T05:20:05.622Z,6.93
2018-04-01T05:22:32.928Z,4.62
2018-04-01T05:25:00.978Z,6.17
2018-04-01T05:27:29.222Z,7.03
2018-04-01T05:29:56.757Z,6.45
2018-04-01T05:32:25.050Z,4.35
2018-04-01T05:34:52.343Z,6.23
2018-04-01T05:37:20.579Z,4.72
2018-04-01T05:39:48.108Z,6.63
2018-04-01T05:42:15.648Z,4.70
2018-04-01T05:44:43.200Z,7.00
2018-04-01T05:47:11.555Z,4.73
2018-04-01T05:49:38.863Z,5.80
2018-04-01T05:52:06.387Z,6.40
2018-04-01T05:54:34.800Z,5.40
2018-04-01T05:57:02.366Z,5.20
2018-04-01T05:59:30.054Z,4.63
2018-04-01T06:01:57.318Z,6.40
2018-04-01T06:04:24.845Z,7.60
2018-04-01T06:06:52.190Z,7.83
2018-04-01T06:09:20.219Z,5.87
2018-04-01T06:11:48.877Z,8.70
2018-04-01T06:14:16.991Z,6.82
2018-04-01T06:16:44.527Z,7.57
2018-04-01T06:19:12.606Z,7.67
2018-04-01T06:21:40.710Z,7.77
2018-04-01T06:24:07.979Z,7.63
2018-04-01T06:26:35.278Z,7.80
2018-04-01T06:29:03.305Z,6.20
2018-04-01T06:31:30.607Z,6.73
2018-04-01T06:33:58.420Z,6.10
2018-04-01T06:36:26.093Z,8.27
2018-04-01T06:38:53.370Z,9.33
2018-04-01T06:41:21.418Z,10.30
2018-04-01T06:43:49.691Z,9.30
2018-04-01T06:46:16.971Z,8.57
2018-04-01T06:48:44.397Z,6.90
2018-04-01T06:51:11.828Z,8.43
2018-04-01T06:53:39.521Z,10.97
2018-04-01T06:56:07.921Z,7.75
2018-04-01T06:58:35.967Z,10.60
2018-04-01T07:01:03.495Z,8.97
2018-04-01T07:03:30.774Z,9.93
2018-04-01T07:05:58.269Z,9.27
2018-04-01T07:08:25.850Z,11.40
2018-04-01T07:10:53.422Z,10.03
2018-04-01T07:13:20.696Z,9.10
2018-04-01T07:15:48.769Z,9.43
2018-04-01T07:18:16.391Z,8.82
2018-04-01T07:20:43.839Z,9.53
2018-04-01T07:23:11.503Z,9.57
2018-04-01T07:25:38.967Z,10.67
2018-04-01T07:28:06.539Z,9.77
2018-04-01T07:30:34.082Z,10.15
2018-04-01T07:33:01.366Z,13.47
2018-04-01T07:35:28.757Z,6.37
2018-04-01T07:37:56.810Z,8.73
2018-04-01T07:40:24.087Z,7.53
2018-04-01T07:42:52.149Z,6.17
2018-04-01T07:45:19.723Z,5.75
2018-04-01T07:47:47.008Z,5.33
2018-04-01T07:50:14.563Z,5.50
2018-04-01T07:52:42.071Z,6.20
2018-04-01T07:55:09.423Z,6.80
2018-04-01T07:57:37.234Z,8.73
2018-04-01T08:00:05.331Z,4.67
2018-04-01T08:02:33.577Z,7.03
2018-04-01T08:05:00.850Z,4.83
2018-04-01T08:07:28.123Z,5.07
2018-04-01T08:09:55.392Z,3.80
2018-04-01T08:12:22.955Z,3.30
2018-04-01T08:14:51.000Z,2.90
2018-04-01T08:17:18.330Z,2.97
2018-04-01T08:19:46.002Z,3.65
2018-04-01T08:22:13.051Z,2.90
2018-04-01T08:24:41.233Z,4.70
2018-04-01T08:27:08.496Z,3.00
2018-04-01T08:29:35.779Z,3.03
2018-04-01T08:32:03.414Z,2.60
2018-04-01T08:34:31.778Z,2.37
2018-04-01T08:36:59.050Z,3.57
2018-04-01T08:39:26.618Z,4.63
2018-04-01T08:41:54.461Z,3.57
2018-04-01T08:44:21.742Z,7.93
2018-04-01T08:46:49.007Z,2.90
2018-04-01T08:49:16.283Z,2.30
2018-04-01T08:51:43.546Z,2.23
2018-04-01T08:54:10.842Z,6.57
2018-04-01T08:56:38.382Z,2.80
2018-04-01T08:59:05.662Z,2.40
2018-04-01T09:01:32.930Z,2.50
2018-04-01T09:04:00.206Z,2.73
2018-04-01T09:06:27.491Z,2.33
2018-04-01T09:08:55.338Z,2.40
2018-04-01T09:11:22.616Z,3.03
2018-04-01T09:13:50.658Z,3.20
2018-04-01T09:16:17.722Z,2.57
2018-04-01T09:18:45.262Z,3.12
2018-04-01T09:21:13.038Z,4.78
2018-04-01T09:23:40.318Z,2.47
2018-04-01T09:26:07.617Z,1.93
2018-04-01T09:28:35.251Z,2.47
2018-04-01T09:31:02.531Z,2.37
2018-04-01T09:33:31.427Z,3.13
2018-04-01T09:35:58.721Z,2.77
2018-04-01T09:38:26.246Z,4.87
2018-04-01T09:40:53.812Z,1.80
2018-04-01T09:43:21.081Z,2.10
2018-04-01T09:45:49.124Z,1.77
2018-04-01T09:48:16.446Z,1.53
2018-04-01T09:50:45.061Z,1.83
2018-04-01T09:53:12.327Z,1.70
2018-04-01T09:55:40.517Z,1.70
2018-04-01T09:58:08.520Z,1.48
2018-04-01T10:00:40.769Z,1.40
2018-04-01T10:03:09.266Z,1.23
2018-04-01T10:05:38.733Z,1.42
2018-04-01T10:08:07.476Z,2.10
2018-04-01T10:10:36.218Z,2.57
2018-04-01T10:13:04.662Z,2.57
2018-04-01T10:15:33.125Z,1.97
2018-04-01T10:18:01.839Z,2.50
2018-04-01T10:20:30.455Z,2.90
2018-04-01T10:22:59.115Z,2.17
2018-04-01T10:25:28.347Z,1.67
2018-04-01T10:27:56.795Z,1.50
2018-04-01T10:30:25.799Z,1.95
2018-04-01T10:32:54.520Z,2.65
2018-04-01T10:35:23.973Z,3.62
2018-04-01T10:37:53.313Z,1.80
2018-04-01T10:40:22.245Z,2.03
2018-04-01T10:42:50.963Z,2.35
2018-04-01T10:45:20.339Z,2.28
2018-04-01T10:47:48.806Z,2.33
2018-04-01T10:50:17.531Z,2.60
2018-04-01T10:52:46.127Z,1.93
2018-04-01T10:55:13.401Z,1.67
2018-04-01T10:57:40.688Z,1.80
2018-04-01T11:00:08.225Z,1.85
2018-04-01T11:02:35.530Z,3.07
2018-04-01T11:05:03.682Z,2.40
2018-04-01T11:07:31.248Z,1.67
2018-04-01T11:09:59.488Z,2.40
2018-04-01T11:12:26.911Z,2.10
2018-04-01T11:14:55.247Z,1.60
2018-04-01T11:17:23.287Z,1.73
2018-04-01T11:19:50.564Z,1.40
2018-04-01T11:22:17.618Z,4.40
2018-04-01T11:24:44.682Z,1.45
2018-04-01T11:27:12.990Z,1.70
2018-04-01T11:29:41.318Z,1.65
2018-04-01T11:32:08.645Z,2.70
2018-04-01T11:34:35.927Z,1.50
2018-04-01T11:37:03.762Z,2.42
2018-04-01T11:39:31.252Z,1.60
2018-04-01T11:41:59.291Z,3.97
2018-04-01T11:44:26.562Z,4.00
2018-04-01T11:46:54.101Z,3.30
2018-04-01T11:49:21.698Z,2.80
2018-04-01T11:51:49.132Z,2.10
2018-04-01T11:54:16.681Z,2.25
2018-04-01T11:56:43.970Z,3.13
2018-04-01T11:59:11.675Z,3.25
2018-04-01T12:01:39.308Z,1.87
2018-04-01T12:04:06.574Z,1.77
2018-04-01T12:06:33.854Z,1.67
2018-04-01T12:09:01.169Z,1.93
2018-04-01T12:11:28.650Z,1.60
2018-04-01T12:13:55.915Z,1.93
2018-04-01T12:16:23.362Z,1.43
2018-04-01T12:18:50.759Z,1.80
2018-04-01T12:21:18.799Z,2.97
2018-04-01T12:23:46.360Z,2.08
2018-04-01T12:26:13.955Z,1.10
2018-04-01T12:28:41.303Z,1.40
2018-04-01T12:31:09.342Z,1.20
2018-04-01T12:33:36.876Z,1.10
2018-04-01T12:36:05.354Z,1.40
2018-04-01T12:38:32.901Z,0.95
2018-04-01T12:41:01.215Z,0.90
2018-04-01T12:43:28.507Z,0.80
2018-04-01T12:45:55.939Z,0.60
2018-04-01T12:48:23.349Z,0.50
2018-04-01T12:50:50.626Z,0.50
2018-04-01T12:53:17.930Z,0.63
2018-04-01T12:55:45.339Z,28.13
2018-04-01T12:58:13.634Z,0.60
2018-04-01T13:00:41.691Z,0.70
2018-04-01T13:03:09.196Z,1.77
2018-04-01T13:05:36.479Z,1.37
2018-04-01T13:08:03.779Z,1.10
2018-04-01T13:10:31.528Z,1.00
2018-04-01T13:12:59.786Z,1.17
2018-04-01T13:15:27.342Z,1.47
2018-04-01T13:17:54.908Z,1.25
2018-04-01T13:20:22.349Z,5.50
2018-04-01T13:22:49.643Z,3.43
2018-04-01T13:25:17.063Z,1.97
2018-04-01T13:27:44.625Z,3.17
2018-04-01T13:30:12.167Z,1.48
2018-04-01T13:32:39.754Z,1.52
2018-04-01T13:35:07.362Z,2.03
2018-04-01T13:37:34.777Z,0.60
2018-04-01T13:40:02.611Z,0.47
2018-04-01T13:42:30.145Z,0.70
2018-04-01T13:44:57.433Z,0.40
2018-04-01T13:47:24.804Z,0.50
2018-04-01T13:49:52.737Z,0.40
2018-04-01T13:52:20.017Z,0.50
2018-04-01T13:54:47.218Z,0.40
2018-04-01T13:57:15.523Z,0.60
2018-04-01T13:59:43.082Z,1.20
2018-04-01T14:02:10.434Z,1.90
2018-04-01T14:04:37.989Z,0.90
2018-04-01T14:07:05.504Z,1.05
2018-04-01T14:09:32.792Z,0.70
2018-04-01T14:12:00.198Z,1.47
2018-04-01T14:14:28.590Z,0.60
2018-04-01T14:16:56.271Z,0.90
2018-04-01T14:19:24.390Z,0.80
2018-04-01T14:21:52.051Z,0.57
2018-04-01T14:24:19.854Z,0.90
2018-04-01T14:26:47.178Z,0.60
2018-04-01T14:29:14.720Z,0.57
2018-04-01T14:31:42.288Z,0.70
2018-04-01T14:34:10.319Z,0.80
2018-04-01T14:36:37.859Z,2.15
2018-04-01T14:39:06.565Z,1.60
2018-04-01T14:41:33.846Z,1.10
2018-04-01T14:44:02.278Z,0.83
2018-04-01T14:46:29.939Z,1.67
2018-04-01T14:48:58.850Z,1.08
2018-04-01T14:51:26.136Z,1.30
2018-04-01T14:53:54.162Z,0.90
2018-04-01T14:56:21.709Z,1.70
2018-04-01T14:58:49.809Z,1.33
2018-04-01T15:01:17.174Z,5.90
2018-04-01T15:03:44.783Z,1.30
2018-04-01T15:06:13.111Z,3.93
2018-04-01T15:08:40.642Z,1.52
2018-04-01T15:11:07.943Z,1.70
2018-04-01T15:13:35.222Z,1.70
2018-04-01T15:16:03.577Z,1.15
2018-04-01T15:18:31.202Z,1.97
2018-04-01T15:20:59.370Z,2.20
2018-04-01T15:23:26.921Z,1.95
2018-04-01T15:25:55.197Z,1.87
2018-04-01T15:28:22.484Z,2.30
2018-04-01T15:30:50.527Z,1.57
2018-04-01T15:33:18.043Z,2.07
2018-04-01T15:35:45.311Z,1.80
2018-04-01T15:38:12.595Z,2.00
2018-04-01T15:40:40.143Z,2.05
2018-04-01T15:43:07.606Z,1.73
2018-04-01T15:45:35.142Z,2.10
2018-04-01T15:48:02.589Z,2.57
2018-04-01T15:50:29.849Z,2.80
2018-04-01T15:52:57.131Z,2.30
2018-04-01T15:55:24.710Z,2.03
2018-04-01T15:57:52.244Z,3.17
2018-04-01T16:00:20.606Z,2.10
2018-04-01T16:02:48.188Z,2.00
2018-04-01T16:05:15.449Z,2.87
2018-04-01T16:07:42.911Z,3.77
2018-04-01T16:10:11.664Z,5.33
2018-04-01T16:12:39.455Z,2.62
2018-04-01T16:15:07.119Z,2.53
2018-04-01T16:17:34.675Z,3.37
2018-04-01T16:20:02.723Z,2.77
2018-04-01T16:22:30.023Z,2.57
2018-04-01T16:24:57.302Z,4.80
2018-04-01T16:27:24.770Z,3.33
2018-04-01T16:29:51.829Z,4.77
2018-04-01T16:32:19.354Z,3.22
2018-04-01T16:34:47.699Z,5.18
2018-04-01T16:37:14.974Z,16.10
2018-04-01T16:39:42.422Z,7.27
2018-04-01T16:42:11.365Z,2.37
2018-04-01T16:44:38.894Z,2.30
2018-04-01T16:47:06.170Z,3.53
2018-04-01T16:49:33.723Z,3.47
2018-04-01T16:52:00.999Z,4.93
2018-04-01T16:54:28.546Z,5.27
2018-04-01T16:56:56.087Z,3.62
2018-04-01T16:59:23.394Z,5.30
2018-04-01T17:01:50.767Z,6.80
2018-04-01T17:04:18.050Z,6.40
2018-04-01T17:06:46.130Z,3.70
2018-04-01T17:09:13.410Z,3.80
2018-04-01T17:11:41.454Z,4.17
2018-04-01T17:14:09.046Z,6.43
2018-04-01T17:16:36.416Z,3.90
2018-04-01T17:19:03.727Z,2.60
2018-04-01T17:21:31.493Z,2.90
2018-04-01T17:23:58.790Z,3.73
2018-04-01T17:26:26.063Z,2.83
2018-04-01T17:28:53.359Z,3.07
2018-04-01T17:31:20.594Z,3.00
2018-04-01T17:33:48.022Z,2.53
2018-04-01T17:36:15.308Z,4.03
2018-04-01T17:38:42.840Z,2.62
2018-04-01T17:41:10.131Z,2.33
2018-04-01T17:43:37.683Z,3.50
2018-04-01T17:46:05.727Z,2.60
2018-04-01T17:48:33.010Z,3.27
2018-04-01T17:51:01.262Z,3.00
2018-04-01T17:53:28.813Z,2.43
2018-04-01T17:55:56.326Z,2.67
2018-04-01T17:58:23.925Z,4.97
2018-04-01T18:00:51.469Z,2.12
2018-04-01T18:03:18.737Z,3.93
2018-04-01T18:05:46.283Z,2.92
2018-04-01T18:08:13.555Z,2.57
2018-04-01T18:10:41.090Z,2.92
2018-04-01T18:13:08.778Z,3.45
2018-04-01T18:15:36.485Z,2.25
2018-04-01T18:18:04.997Z,5.40
2018-04-01T18:20:32.266Z,3.00
2018-04-01T18:22:59.805Z,3.30
2018-04-01T18:25:27.347Z,3.07
2018-04-01T18:27:54.831Z,2.63
2018-04-01T18:30:22.102Z,2.50
2018-04-01T18:32:50.268Z,4.80
2018-04-01T18:35:17.536Z,3.17
2018-04-01T18:37:45.582Z,2.77
2018-04-01T18:40:13.117Z,4.65
2018-04-01T18:42:41.432Z,2.70
2018-04-01T18:45:08.901Z,5.77
2018-04-01T18:47:36.231Z,3.12
2018-04-01T18:50:03.509Z,6.50
2018-04-01T18:52:30.980Z,4.40
2018-04-01T18:54:59.111Z,5.87
2018-04-01T18:57:26.650Z,4.03
2018-04-01T18:59:54.154Z,3.33
2018-04-01T19:02:23.630Z,3.07
2018-04-01T19:04:50.906Z,3.33
2018-04-01T19:07:18.450Z,3.40
2018-04-01T19:09:46.231Z,4.73
2018-04-01T19:12:13.708Z,3.37
2018-04-01T19:14:41.007Z,2.70
2018-04-01T19:17:09.714Z,4.03
2018-04-01T19:19:38.912Z,4.00
2018-04-01T19:22:07.128Z,4.23
2018-04-01T19:24:35.567Z,5.60
2018-04-01T19:27:04.761Z,5.53
2018-04-01T19:29:33.766Z,2.87
2018-04-01T19:32:02.963Z,4.63
2018-04-01T19:34:31.415Z,3.10
2018-04-01T19:37:00.134Z,5.15
2018-04-01T19:39:29.326Z,3.87
2018-04-01T19:41:58.017Z,4.82
2018-04-01T19:44:26.707Z,4.57
2018-04-01T19:46:55.387Z,4.00
2018-04-01T19:49:25.066Z,4.43
2018-04-01T19:51:55.639Z,5.63
2018-04-01T19:54:24.082Z,3.83
2018-04-01T19:56:52.803Z,5.93
2018-04-01T19:59:21.242Z,4.00
2018-04-01T20:01:49.940Z,4.00
2018-04-01T20:04:19.139Z,6.43
2018-04-01T20:06:48.391Z,5.40
2018-04-01T20:09:16.962Z,6.13
2018-04-01T20:11:46.727Z,4.28
2018-04-01T20:14:15.926Z,5.23
2018-04-01T20:16:45.111Z,3.93
2018-04-01T20:19:13.819Z,6.13
2018-04-01T20:21:43.231Z,3.67
2018-04-01T20:24:11.644Z,4.07
2018-04-01T20:26:40.358Z,5.23
2018-04-01T20:29:08.778Z,6.50
2018-04-01T20:31:37.478Z,3.47
2018-04-01T20:34:05.892Z,5.57
2018-04-01T20:36:35.831Z,4.57
2018-04-01T20:39:04.366Z,5.03
2018-04-01T20:41:34.134Z,4.00
2018-04-01T20:44:02.738Z,4.40
2018-04-01T20:46:31.325Z,5.23
2018-04-01T20:48:59.752Z,4.73
2018-04-01T20:51:28.954Z,8.60
2018-04-01T20:53:57.502Z,6.10
2018-04-01T20:56:26.020Z,3.67
2018-04-01T20:58:54.708Z,3.42
2018-04-01T21:01:23.414Z,5.68
2018-04-01T21:03:52.095Z,5.68
2018-04-01T21:06:20.543Z,4.67
2018-04-01T21:08:48.974Z,4.07
2018-04-01T21:11:17.610Z,3.90
2018-04-01T21:13:46.278Z,4.43
2018-04-01T21:16:14.818Z,3.67
2018-04-01T21:18:43.530Z,4.80
2018-04-01T21:21:11.949Z,3.70
2018-04-01T21:23:40.686Z,5.70
2018-04-01T21:26:09.291Z,4.43
2018-04-01T21:28:37.993Z,6.15
2018-04-01T21:31:07.188Z,4.87
2018-04-01T21:33:35.623Z,4.30
2018-04-01T21:36:05.081Z,8.57
2018-04-01T21:38:33.777Z,4.50
2018-04-01T21:41:02.474Z,5.78
2018-04-01T21:43:31.766Z,5.47
2018-04-01T21:46:00.957Z,5.20
2018-04-01T21:48:30.150Z,4.37
2018-04-01T21:50:58.659Z,6.40
2018-04-01T21:53:27.249Z,5.13
2018-04-01T21:55:55.807Z,6.80
2018-04-01T21:58:25.034Z,4.73
2018-04-01T22:00:53.445Z,4.23
2018-04-01T22:03:21.891Z,6.13
2018-04-01T22:05:50.455Z,4.53
2018-04-01T22:08:18.875Z,6.03
2018-04-01T22:10:47.571Z,6.55
2018-04-01T22:13:16.225Z,5.60
2018-04-01T22:15:44.654Z,3.73
2018-04-01T22:18:13.371Z,5.60
2018-04-01T22:20:41.794Z,5.30
2018-04-01T22:23:12.529Z,6.07
2018-04-01T22:25:41.523Z,7.20
2018-04-01T22:28:10.206Z,8.73
2018-04-01T22:30:38.915Z,6.00
2018-04-01T22:33:07.331Z,4.87
2018-04-01T22:35:36.390Z,6.20
2018-04-01T22:38:05.691Z,7.20
2018-04-01T22:40:34.315Z,5.93
2018-04-01T22:43:03.826Z,7.97
2018-04-01T22:45:32.264Z,9.20
2018-04-01T22:48:01.216Z,8.30
2018-04-01T22:50:29.921Z,6.03
2018-04-01T22:52:58.354Z,8.30
2018-04-01T22:55:27.593Z,5.83
2018-04-01T22:57:56.316Z,6.10
2018-04-01T23:00:24.741Z,9.07
2018-04-01T23:02:53.178Z,7.62
2018-04-01T23:05:21.989Z,6.15
2018-04-01T23:07:51.442Z,6.55
2018-04-01T23:10:20.651Z,8.03
2018-04-01T23:12:49.352Z,7.32
2018-04-01T23:15:18.753Z,7.53
2018-04-01T23:17:48.166Z,12.50
2018-04-01T23:20:17.526Z,9.50
2018-04-01T23:22:46.185Z,5.43
2018-04-01T23:25:15.514Z,6.53
2018-04-01T23:27:44.040Z,8.93
2018-04-01T23:30:12.477Z,11.03
2018-04-01T23:32:41.174Z,10.13
2018-04-01T23:35:09.642Z,5.67
2018-04-01T23:37:38.341Z,7.67
2018-04-01T23:40:07.021Z,7.62
2018-04-01T23:42:35.882Z,6.37
2018-04-01T23:45:04.598Z,7.00
2018-04-01T23:47:32.926Z,7.63
2018-04-01T23:50:01.385Z,5.80
2018-04-01T23:52:30.860Z,6.10
2018-04-01T23:55:00.046Z,6.63
2018-04-01T23:57:28.744Z,6.50
2018-04-01T23:59:57.229Z,7.03
